Map

Track Data

SID SEASON NUMBER BASIN SUBBASIN NAME ISO_TIME NATURE LAT LON WMO_WIND WMO_PRES WMO_AGENCY TRACK_TYPE DIST2LAND LANDFALL IFLAG USA_AGENCY USA_ATCF_ID USA_LAT USA_LON USA_RECORD USA_STATUS USA_WIND USA_PRES USA_SSHS USA_R34_NE USA_R34_SE USA_R34_SW USA_R34_NW USA_R50_NE USA_R50_SE USA_R50_SW USA_R50_NW USA_R64_NE USA_R64_SE USA_R64_SW USA_R64_NW USA_POCI USA_ROCI USA_RMW USA_EYE TOKYO_LAT TOKYO_LON TOKYO_GRADE TOKYO_WIND TOKYO_PRES TOKYO_R50_DIR TOKYO_R50_LONG TOKYO_R50_SHORT TOKYO_R30_DIR TOKYO_R30_LONG TOKYO_R30_SHORT TOKYO_LAND CMA_LAT CMA_LON CMA_CAT CMA_WIND CMA_PRES HKO_LAT HKO_LON HKO_CAT HKO_WIND HKO_PRES NEWDELHI_LAT NEWDELHI_LON NEWDELHI_GRADE NEWDELHI_WIND NEWDELHI_PRES NEWDELHI_CI NEWDELHI_DP NEWDELHI_POCI REUNION_LAT REUNION_LON REUNION_TYPE REUNION_WIND REUNION_PRES REUNION_TNUM REUNION_CI REUNION_RMW REUNION_R34_NE REUNION_R34_SE REUNION_R34_SW REUNION_R34_NW REUNION_R50_NE REUNION_R50_SE REUNION_R50_SW REUNION_R50_NW REUNION_R64_NE REUNION_R64_SE REUNION_R64_SW REUNION_R64_NW BOM_LAT BOM_LON BOM_TYPE BOM_WIND BOM_PRES BOM_TNUM BOM_CI BOM_RMW BOM_R34_NE BOM_R34_SE BOM_R34_SW BOM_R34_NW BOM_R50_NE BOM_R50_SE BOM_R50_SW BOM_R50_NW BOM_R64_NE BOM_R64_SE BOM_R64_SW BOM_R64_NW BOM_ROCI BOM_POCI BOM_EYE BOM_POS_METHOD BOM_PRES_METHOD NADI_LAT NADI_LON NADI_CAT NADI_WIND NADI_PRES WELLINGTON_LAT WELLINGTON_LON WELLINGTON_WIND WELLINGTON_PRES DS824_LAT DS824_LON DS824_STAGE DS824_WIND DS824_PRES TD9636_LAT TD9636_LON TD9636_STAGE TD9636_WIND TD9636_PRES TD9635_LAT TD9635_LON TD9635_WIND TD9635_PRES TD9635_ROCI NEUMANN_LAT NEUMANN_LON NEUMANN_CLASS NEUMANN_WIND NEUMANN_PRES MLC_LAT MLC_LON MLC_CLASS MLC_WIND MLC_PRES USA_GUST BOM_GUST BOM_GUST_PER REUNION_GUST REUNION_GUST_PER USA_SEAHGT USA_SEARAD_NE USA_SEARAD_SE USA_SEARAD_SW USA_SEARAD_NW STORM_SPEED STORM_DIR
1958288N15248 1958 96 EP MM NOT_NAMED 1958-10-14 12:00:00 TS 14.7000 -112.000 45 hurdat_epa main 905 905 O________OO___ hurdat_epa EP111958 14.7000 -112.000 TS 45 0 14.7000 -112.000 TC 45 14.7000 -112.000 2 13 275
1958288N15248 1958 96 EP MM NOT_NAMED 1958-10-14 15:00:00 TS 14.7514 -112.644 main 946 946 P________PP___ EP111958 14.7503 -112.640 TS 45 0 14.7503 -112.640 TC 45 14.7558 -112.661 2 13 275
1958288N15248 1958 96 EP MM NOT_NAMED 1958-10-14 18:00:00 TS 14.8017 -113.305 45 hurdat_epa main 970 970 O________OP___ hurdat_epa EP111958 14.8000 -113.300 TS 45 0 14.8000 -113.300 TC 45 14.8086 -113.327 2 13 274
1958288N15248 1958 96 EP MM NOT_NAMED 1958-10-14 21:00:00 TS 14.8513 -113.995 main 988 988 P________PP___ EP111958 14.8499 -113.993 TS 45 0 14.8499 -113.993 TC 45 14.8571 -114.005 2 14 274
1958288N15248 1958 96 EP MM NOT_NAMED 1958-10-15 00:00:00 TS 14.9000 -114.700 45 hurdat_epa main 1022 1022 O________OO___ hurdat_epa EP111958 14.9000 -114.700 TS 45 0 14.9000 -114.700 TC 45 14.9000 -114.700 2 14 274
1958288N15248 1958 96 EP MM NOT_NAMED 1958-10-15 03:00:00 TS 14.9531 -115.403 main 1050 1050 P________PP___ EP111958 14.9573 -115.400 TS 45 0 14.9573 -115.400 TC 45 14.9361 -115.413 2 14 274
1958288N15248 1958 96 EP MM NOT_NAMED 1958-10-15 06:00:00 TS 14.9930 -116.106 45 hurdat_epa main 1091 1091 O________OP___ hurdat_epa EP111958 15.0000 -116.100 TS 45 0 15.0000 -116.100 TC 45 14.9649 -116.130 2 14 272
1958288N15248 1958 96 EP MM NOT_NAMED 1958-10-15 09:00:00 TS 15.0032 -116.824 main 1136 1136 P________PP___ EP111958 15.0075 -116.823 TS 45 0 15.0075 -116.823 TC 45 14.9862 -116.832 2 13 270
1958288N15248 1958 96 EP MM NOT_NAMED 1958-10-15 12:00:00 TS 15.0000 -117.500 45 hurdat_epa main 1183 1183 O________OO___ hurdat_epa EP111958 15.0000 -117.500 TS 45 0 15.0000 -117.500 TC 45 15.0000 -117.500 2 12 270
1958288N15248 1958 96 EP MM NOT_NAMED 1958-10-15 15:00:00 TS 15.0010 -118.075 main 1226 1226 P________PP___ EP111958 14.9996 -118.065 TS 45 0 14.9996 -118.065 TC 45 15.0063 -118.115 2 11 270
1958288N15248 1958 96 EP MM NOT_NAMED 1958-10-15 18:00:00 TS 15.0013 -118.619 45 hurdat_epa main 1263 1263 O________OP___ hurdat_epa EP111958 15.0000 -118.600 TS 45 0 15.0000 -118.600 TC 45 15.0064 -118.695 2 11 270
1958288N15248 1958 96 EP MM NOT_NAMED 1958-10-15 21:00:00 TS 15.0006 -119.211 main 1309 1309 P________PP___ EP111958 15.0000 -119.200 TS 45 0 15.0000 -119.200 TC 45 15.0033 -119.253 2 11 270
1958288N15248 1958 96 EP MM NOT_NAMED 1958-10-16 00:00:00 TS 15.0000 -119.800 45 hurdat_epa main 1350 1350 O________OO___ hurdat_epa EP111958 15.0000 -119.800 TS 45 0 15.0000 -119.800 TC 45 15.0000 -119.800 2 11 270
1958288N15248 1958 96 EP MM NOT_NAMED 1958-10-16 03:00:00 TS 14.9998 -120.360 main 1388 1388 P________PP___ EP111958 14.9998 -120.358 TS 45 0 14.9998 -120.358 TC 45 14.9997 -120.369 2 11 270
1958288N15248 1958 96 EP MM NOT_NAMED 1958-10-16 06:00:00 TS 14.9999 -120.906 45 hurdat_epa main 1421 1421 O________OP___ hurdat_epa EP111958 15.0000 -120.900 TS 45 0 15.0000 -120.900 TC 45 14.9997 -120.930 2 11 270
1958288N15248 1958 96 EP MM NOT_NAMED 1958-10-16 09:00:00 TS 14.9999 -121.461 main 1462 1462 P________PP___ EP111958 14.9999 -121.458 TS 45 0 14.9999 -121.458 TC 45 14.9998 -121.476 2 11 270
1958288N15248 1958 96 EP MM NOT_NAMED 1958-10-16 12:00:00 TS 15.0000 -122.000 45 hurdat_epa main 1498 1498 O________OO___ hurdat_epa EP111958 15.0000 -122.000 TS 45 0 15.0000 -122.000 TC 45 15.0000 -122.000 2 10 270
1958288N15248 1958 96 EP MM NOT_NAMED 1958-10-16 15:00:00 TS 15.0000 -122.512 main 1534 1534 P________PP___ EP111958 14.9999 -122.515 TS 45 0 14.9999 -122.515 TC 45 15.0003 -122.499 2 10 270
1958288N15248 1958 96 EP MM NOT_NAMED 1958-10-16 18:00:00 TS 15.0001 -122.995 45 hurdat_epa main 1572 1572 O________OP___ hurdat_epa EP111958 15.0000 -123.000 TS 45 0 15.0000 -123.000 TC 45 15.0006 -122.977 2 9 270
1958288N15248 1958 96 EP MM NOT_NAMED 1958-10-16 21:00:00 TS 15.0002 -123.454 main 1609 1609 P________PP___ EP111958 15.0002 -123.458 TS 45 0 15.0002 -123.458 TC 45 15.0006 -123.442 2 9 270
1958288N15248 1958 96 EP MM NOT_NAMED 1958-10-17 00:00:00 TS 15.0000 -123.900 45 hurdat_epa main 1640 O________OO___ hurdat_epa EP111958 15.0000 -123.900 TS 45 0 15.0000 -123.900 TC 45 15.0000 -123.900 2 9 270

About IBTrACS Database

This database is a web-friendly format of International Best Track Archive for Climate Stewardship (IBTrACS), a global best track data archive curated by NOAA dating back to 1842.

Updated: 2021-11-26